sensor_id;sensor_type;location;lat;lon;timestamp;pressure;altitude;pressure_sealevel;temperature
8533;BMP280;4304;53.876;10.662;2023-04-22T00:01:20;101464.25;;;8.26
8533;BMP280;4304;53.876;10.662;2023-04-22T00:03:48;101451.03;;;8.13
8533;BMP280;4304;53.876;10.662;2023-04-22T00:06:14;101454.84;;;8.05
8533;BMP280;4304;53.876;10.662;2023-04-22T00:08:39;101444.34;;;8.08
8533;BMP280;4304;53.876;10.662;2023-04-22T00:11:04;101447.13;;;8.04
8533;BMP280;4304;53.876;10.662;2023-04-22T00:13:30;101426.09;;;7.93
8533;BMP280;4304;53.876;10.662;2023-04-22T00:15:55;101431.41;;;7.90
8533;BMP280;4304;53.876;10.662;2023-04-22T00:18:21;101427.19;;;7.87
8533;BMP280;4304;53.876;10.662;2023-04-22T00:20:46;101404.53;;;7.74
8533;BMP280;4304;53.876;10.662;2023-04-22T00:23:12;101397.06;;;7.68
8533;BMP280;4304;53.876;10.662;2023-04-22T00:25:37;101397.47;;;7.59
8533;BMP280;4304;53.876;10.662;2023-04-22T00:28:03;101392.63;;;7.52
8533;BMP280;4304;53.876;10.662;2023-04-22T00:30:28;101386.28;;;7.40
8533;BMP280;4304;53.876;10.662;2023-04-22T00:32:53;101389.34;;;7.48
8533;BMP280;4304;53.876;10.662;2023-04-22T00:35:19;101380.63;;;7.51
8533;BMP280;4304;53.876;10.662;2023-04-22T00:37:44;101374.41;;;7.55
8533;BMP280;4304;53.876;10.662;2023-04-22T00:40:10;101374.19;;;7.59
8533;BMP280;4304;53.876;10.662;2023-04-22T00:42:36;101384.41;;;7.62
8533;BMP280;4304;53.876;10.662;2023-04-22T00:45:02;101375.81;;;7.62
8533;BMP280;4304;53.876;10.662;2023-04-22T00:47:27;101369.72;;;7.63
8533;BMP280;4304;53.876;10.662;2023-04-22T00:49:54;101377.06;;;7.53
8533;BMP280;4304;53.876;10.662;2023-04-22T00:52:19;101374.00;;;7.45
8533;BMP280;4304;53.876;10.662;2023-04-22T00:54:44;101363.97;;;7.38
8533;BMP280;4304;53.876;10.662;2023-04-22T00:57:11;101350.66;;;7.27
8533;BMP280;4304;53.876;10.662;2023-04-22T00:59:36;101364.66;;;7.23
8533;BMP280;4304;53.876;10.662;2023-04-22T01:02:02;101374.28;;;7.20
8533;BMP280;4304;53.876;10.662;2023-04-22T01:04:28;101358.03;;;7.18
8533;BMP280;4304;53.876;10.662;2023-04-22T01:06:54;101357.31;;;7.14
8533;BMP280;4304;53.876;10.662;2023-04-22T01:09:19;101359.91;;;7.14
8533;BMP280;4304;53.876;10.662;2023-04-22T01:11:46;101362.56;;;7.13
8533;BMP280;4304;53.876;10.662;2023-04-22T01:14:11;101356.56;;;7.11
8533;BMP280;4304;53.876;10.662;2023-04-22T01:16:37;101362.47;;;7.14
8533;BMP280;4304;53.876;10.662;2023-04-22T01:19:04;101364.78;;;7.20
8533;BMP280;4304;53.876;10.662;2023-04-22T01:21:31;101365.53;;;7.22
8533;BMP280;4304;53.876;10.662;2023-04-22T01:23:59;101362.31;;;7.17
8533;BMP280;4304;53.876;10.662;2023-04-22T01:26:24;101352.66;;;7.02
8533;BMP280;4304;53.876;10.662;2023-04-22T01:28:50;101353.00;;;6.95
8533;BMP280;4304;53.876;10.662;2023-04-22T01:31:15;101362.09;;;6.83
8533;BMP280;4304;53.876;10.662;2023-04-22T01:33:40;101359.00;;;6.76
8533;BMP280;4304;53.876;10.662;2023-04-22T01:36:06;101356.47;;;6.74
8533;BMP280;4304;53.876;10.662;2023-04-22T01:38:32;101348.91;;;6.70
8533;BMP280;4304;53.876;10.662;2023-04-22T01:41:00;101364.81;;;6.80
8533;BMP280;4304;53.876;10.662;2023-04-22T01:43:26;101353.25;;;6.89
8533;BMP280;4304;53.876;10.662;2023-04-22T01:45:52;101358.16;;;6.95
8533;BMP280;4304;53.876;10.662;2023-04-22T01:48:17;101354.06;;;6.89
8533;BMP280;4304;53.876;10.662;2023-04-22T01:50:43;101361.00;;;6.89
8533;BMP280;4304;53.876;10.662;2023-04-22T01:53:08;101356.75;;;6.88
8533;BMP280;4304;53.876;10.662;2023-04-22T01:55:37;101363.28;;;6.77
8533;BMP280;4304;53.876;10.662;2023-04-22T01:58:03;101353.25;;;6.69
8533;BMP280;4304;53.876;10.662;2023-04-22T02:00:29;101357.78;;;6.64
8533;BMP280;4304;53.876;10.662;2023-04-22T02:02:54;101360.41;;;6.63
8533;BMP280;4304;53.876;10.662;2023-04-22T02:05:19;101358.66;;;6.63
8533;BMP280;4304;53.876;10.662;2023-04-22T02:07:45;101351.50;;;6.70
8533;BMP280;4304;53.876;10.662;2023-04-22T02:10:10;101350.41;;;6.75
8533;BMP280;4304;53.876;10.662;2023-04-22T02:12:36;101349.50;;;6.96
8533;BMP280;4304;53.876;10.662;2023-04-22T02:15:02;101353.75;;;6.97
8533;BMP280;4304;53.876;10.662;2023-04-22T02:17:27;101351.81;;;7.02
8533;BMP280;4304;53.876;10.662;2023-04-22T02:19:53;101341.75;;;6.96
8533;BMP280;4304;53.876;10.662;2023-04-22T02:22:18;101353.19;;;6.90
8533;BMP280;4304;53.876;10.662;2023-04-22T02:24:44;101339.22;;;6.75
8533;BMP280;4304;53.876;10.662;2023-04-22T02:27:09;101336.16;;;6.67
8533;BMP280;4304;53.876;10.662;2023-04-22T02:29:35;101342.28;;;6.64
8533;BMP280;4304;53.876;10.662;2023-04-22T02:32:00;101352.78;;;6.60
8533;BMP280;4304;53.876;10.662;2023-04-22T02:34:26;101335.22;;;6.48
8533;BMP280;4304;53.876;10.662;2023-04-22T02:36:51;101320.66;;;6.47
8533;BMP280;4304;53.876;10.662;2023-04-22T02:39:16;101327.56;;;6.66
8533;BMP280;4304;53.876;10.662;2023-04-22T02:41:41;101336.53;;;6.78
8533;BMP280;4304;53.876;10.662;2023-04-22T02:44:07;101336.16;;;6.86
8533;BMP280;4304;53.876;10.662;2023-04-22T02:46:32;101331.69;;;6.90
8533;BMP280;4304;53.876;10.662;2023-04-22T02:48:57;101323.06;;;6.89
8533;BMP280;4304;53.876;10.662;2023-04-22T02:51:22;101325.66;;;6.89
8533;BMP280;4304;53.876;10.662;2023-04-22T02:53:48;101318.97;;;6.85
8533;BMP280;4304;53.876;10.662;2023-04-22T02:56:13;101314.88;;;7.00
8533;BMP280;4304;53.876;10.662;2023-04-22T02:58:38;101318.03;;;7.06
8533;BMP280;4304;53.876;10.662;2023-04-22T03:01:03;101311.19;;;7.05
8533;BMP280;4304;53.876;10.662;2023-04-22T03:03:29;101301.09;;;6.99
8533;BMP280;4304;53.876;10.662;2023-04-22T03:05:54;101307.78;;;7.05
8533;BMP280;4304;53.876;10.662;2023-04-22T03:08:20;101313.00;;;7.03
8533;BMP280;4304;53.876;10.662;2023-04-22T03:10:46;101301.91;;;7.01
8533;BMP280;4304;53.876;10.662;2023-04-22T03:13:11;101301.47;;;7.10
8533;BMP280;4304;53.876;10.662;2023-04-22T03:15:39;101299.81;;;7.09
8533;BMP280;4304;53.876;10.662;2023-04-22T03:18:04;101285.97;;;7.10
8533;BMP280;4304;53.876;10.662;2023-04-22T03:20:29;101282.44;;;7.13
8533;BMP280;4304;53.876;10.662;2023-04-22T03:22:54;101281.72;;;7.09
8533;BMP280;4304;53.876;10.662;2023-04-22T03:25:20;101277.97;;;7.16
8533;BMP280;4304;53.876;10.662;2023-04-22T03:27:45;101265.09;;;7.15
8533;BMP280;4304;53.876;10.662;2023-04-22T03:30:10;101278.28;;;7.09
8533;BMP280;4304;53.876;10.662;2023-04-22T03:32:36;101272.41;;;7.05
8533;BMP280;4304;53.876;10.662;2023-04-22T03:35:01;101270.09;;;6.99
8533;BMP280;4304;53.876;10.662;2023-04-22T03:37:26;101272.22;;;6.91
8533;BMP280;4304;53.876;10.662;2023-04-22T03:39:52;101259.47;;;6.87
8533;BMP280;4304;53.876;10.662;2023-04-22T03:42:17;101252.31;;;6.93
8533;BMP280;4304;53.876;10.662;2023-04-22T03:44:42;101252.44;;;6.90
8533;BMP280;4304;53.876;10.662;2023-04-22T03:47:08;101246.38;;;6.91
8533;BMP280;4304;53.876;10.662;2023-04-22T03:49:33;101247.91;;;6.95
8533;BMP280;4304;53.876;10.662;2023-04-22T03:51:58;101239.66;;;6.87
8533;BMP280;4304;53.876;10.662;2023-04-22T03:54:24;101228.63;;;6.84
8533;BMP280;4304;53.876;10.662;2023-04-22T03:56:49;101236.16;;;6.88
8533;BMP280;4304;53.876;10.662;2023-04-22T03:59:14;101228.28;;;6.91
8533;BMP280;4304;53.876;10.662;2023-04-22T04:01:40;101239.25;;;6.96
8533;BMP280;4304;53.876;10.662;2023-04-22T04:04:05;101238.97;;;7.02
8533;BMP280;4304;53.876;10.662;2023-04-22T04:06:30;101239.88;;;7.01
8533;BMP280;4304;53.876;10.662;2023-04-22T04:08:56;101222.91;;;6.96
8533;BMP280;4304;53.876;10.662;2023-04-22T04:11:21;101222.31;;;6.89
8533;BMP280;4304;53.876;10.662;2023-04-22T04:13:46;101215.63;;;6.85
8533;BMP280;4304;53.876;10.662;2023-04-22T04:16:11;101215.94;;;6.98
8533;BMP280;4304;53.876;10.662;2023-04-22T04:18:37;101217.41;;;7.03
8533;BMP280;4304;53.876;10.662;2023-04-22T04:21:02;101220.88;;;7.02
8533;BMP280;4304;53.876;10.662;2023-04-22T04:23:28;101232.25;;;7.35
8533;BMP280;4304;53.876;10.662;2023-04-22T04:25:53;101224.16;;;7.42
8533;BMP280;4304;53.876;10.662;2023-04-22T04:28:20;101227.53;;;7.61
8533;BMP280;4304;53.876;10.662;2023-04-22T04:30:46;101227.94;;;7.70
8533;BMP280;4304;53.876;10.662;2023-04-22T04:33:11;101236.75;;;7.85
8533;BMP280;4304;53.876;10.662;2023-04-22T04:35:37;101235.38;;;7.95
8533;BMP280;4304;53.876;10.662;2023-04-22T04:38:05;101239.03;;;8.07
8533;BMP280;4304;53.876;10.662;2023-04-22T04:40:32;101238.75;;;8.13
8533;BMP280;4304;53.876;10.662;2023-04-22T04:42:58;101244.25;;;8.24
8533;BMP280;4304;53.876;10.662;2023-04-22T04:45:26;101251.88;;;8.27
8533;BMP280;4304;53.876;10.662;2023-04-22T04:47:52;101246.97;;;8.38
8533;BMP280;4304;53.876;10.662;2023-04-22T04:50:18;101246.59;;;8.46
8533;BMP280;4304;53.876;10.662;2023-04-22T04:52:44;101240.41;;;8.65
8533;BMP280;4304;53.876;10.662;2023-04-22T04:55:10;101257.84;;;8.78
8533;BMP280;4304;53.876;10.662;2023-04-22T04:57:35;101266.31;;;8.97
8533;BMP280;4304;53.876;10.662;2023-04-22T05:00:00;101282.69;;;9.30
8533;BMP280;4304;53.876;10.662;2023-04-22T05:02:27;101277.28;;;9.65
8533;BMP280;4304;53.876;10.662;2023-04-22T05:04:52;101293.91;;;9.91
8533;BMP280;4304;53.876;10.662;2023-04-22T05:07:17;101286.81;;;10.39
8533;BMP280;4304;53.876;10.662;2023-04-22T05:09:43;101321.16;;;10.44
8533;BMP280;4304;53.876;10.662;2023-04-22T05:12:08;101285.63;;;9.85
8533;BMP280;4304;53.876;10.662;2023-04-22T05:14:33;101284.47;;;10.35
8533;BMP280;4304;53.876;10.662;2023-04-22T05:16:59;101285.59;;;10.45
8533;BMP280;4304;53.876;10.662;2023-04-22T05:19:24;101286.00;;;10.23
8533;BMP280;4304;53.876;10.662;2023-04-22T05:21:50;101305.81;;;10.69
8533;BMP280;4304;53.876;10.662;2023-04-22T05:24:15;101321.22;;;10.86
8533;BMP280;4304;53.876;10.662;2023-04-22T05:26:40;101329.81;;;11.29
8533;BMP280;4304;53.876;10.662;2023-04-22T05:29:06;101312.53;;;11.56
8533;BMP280;4304;53.876;10.662;2023-04-22T05:31:32;101321.72;;;11.20
8533;BMP280;4304;53.876;10.662;2023-04-22T05:33:58;101322.03;;;11.15
8533;BMP280;4304;53.876;10.662;2023-04-22T05:36:23;101348.03;;;11.71
8533;BMP280;4304;53.876;10.662;2023-04-22T05:38:48;101326.09;;;11.61
8533;BMP280;4304;53.876;10.662;2023-04-22T05:41:14;101342.13;;;12.21
8533;BMP280;4304;53.876;10.662;2023-04-22T05:43:39;101309.44;;;12.68
8533;BMP280;4304;53.876;10.662;2023-04-22T05:46:05;101345.09;;;12.29
8533;BMP280;4304;53.876;10.662;2023-04-22T05:48:30;101334.34;;;12.60
8533;BMP280;4304;53.876;10.662;2023-04-22T05:50:55;101338.56;;;12.87
8533;BMP280;4304;53.876;10.662;2023-04-22T05:53:21;101344.94;;;12.95
8533;BMP280;4304;53.876;10.662;2023-04-22T05:55:46;101318.88;;;13.08
8533;BMP280;4304;53.876;10.662;2023-04-22T05:58:12;101324.94;;;12.57
8533;BMP280;4304;53.876;10.662;2023-04-22T06:00:37;101330.34;;;13.30
8533;BMP280;4304;53.876;10.662;2023-04-22T06:03:02;101327.53;;;12.96
8533;BMP280;4304;53.876;10.662;2023-04-22T06:05:28;101317.31;;;12.93
8533;BMP280;4304;53.876;10.662;2023-04-22T06:07:53;101328.03;;;13.13
8533;BMP280;4304;53.876;10.662;2023-04-22T06:10:18;101326.38;;;13.72
8533;BMP280;4304;53.876;10.662;2023-04-22T06:12:44;101343.25;;;13.92
8533;BMP280;4304;53.876;10.662;2023-04-22T06:15:09;101363.16;;;14.64
8533;BMP280;4304;53.876;10.662;2023-04-22T06:17:35;101353.84;;;14.26
8533;BMP280;4304;53.876;10.662;2023-04-22T06:20:01;101324.94;;;13.68
8533;BMP280;4304;53.876;10.662;2023-04-22T06:22:26;101333.50;;;14.18
8533;BMP280;4304;53.876;10.662;2023-04-22T06:24:51;101345.56;;;14.32
8533;BMP280;4304;53.876;10.662;2023-04-22T06:27:17;101337.34;;;14.36
8533;BMP280;4304;53.876;10.662;2023-04-22T06:29:42;101315.50;;;13.78
8533;BMP280;4304;53.876;10.662;2023-04-22T06:32:07;101269.66;;;13.39
8533;BMP280;4304;53.876;10.662;2023-04-22T06:34:32;101310.78;;;14.42
8533;BMP280;4304;53.876;10.662;2023-04-22T06:36:58;101347.19;;;14.90
8533;BMP280;4304;53.876;10.662;2023-04-22T06:39:23;101320.50;;;15.30
8533;BMP280;4304;53.876;10.662;2023-04-22T06:41:48;101329.69;;;14.80
8533;BMP280;4304;53.876;10.662;2023-04-22T06:44:14;101319.84;;;14.94
8533;BMP280;4304;53.876;10.662;2023-04-22T06:46:39;101312.50;;;15.21
8533;BMP280;4304;53.876;10.662;2023-04-22T06:49:04;101313.53;;;14.96
8533;BMP280;4304;53.876;10.662;2023-04-22T06:51:30;101340.31;;;15.87
8533;BMP280;4304;53.876;10.662;2023-04-22T06:53:56;101332.63;;;15.64
8533;BMP280;4304;53.876;10.662;2023-04-22T06:56:23;101307.88;;;15.24
8533;BMP280;4304;53.876;10.662;2023-04-22T06:58:48;101286.31;;;15.53
8533;BMP280;4304;53.876;10.662;2023-04-22T07:01:13;101299.41;;;15.53
8533;BMP280;4304;53.876;10.662;2023-04-22T07:03:39;101327.44;;;15.95
8533;BMP280;4304;53.876;10.662;2023-04-22T07:06:04;101320.44;;;16.37
8533;BMP280;4304;53.876;10.662;2023-04-22T07:08:30;101332.53;;;16.49
8533;BMP280;4304;53.876;10.662;2023-04-22T07:10:55;101287.91;;;16.18
8533;BMP280;4304;53.876;10.662;2023-04-22T07:13:22;101307.22;;;15.86
8533;BMP280;4304;53.876;10.662;2023-04-22T07:15:47;101302.97;;;16.16
8533;BMP280;4304;53.876;10.662;2023-04-22T07:18:12;101315.03;;;16.50
8533;BMP280;4304;53.876;10.662;2023-04-22T07:20:38;101306.94;;;16.62
8533;BMP280;4304;53.876;10.662;2023-04-22T07:23:03;101291.53;;;16.17
8533;BMP280;4304;53.876;10.662;2023-04-22T07:25:29;101301.38;;;16.35
8533;BMP280;4304;53.876;10.662;2023-04-22T07:27:54;101285.78;;;16.23
8533;BMP280;4304;53.876;10.662;2023-04-22T07:30:20;101299.13;;;16.31
8533;BMP280;4304;53.876;10.662;2023-04-22T07:32:45;101319.00;;;16.65
8533;BMP280;4304;53.876;10.662;2023-04-22T07:35:10;101319.38;;;16.60
8533;BMP280;4304;53.876;10.662;2023-04-22T07:37:36;101305.72;;;17.07
8533;BMP280;4304;53.876;10.662;2023-04-22T07:40:01;101313.06;;;17.33
8533;BMP280;4304;53.876;10.662;2023-04-22T07:42:26;101339.81;;;17.86
8533;BMP280;4304;53.876;10.662;2023-04-22T07:44:52;101322.25;;;17.38
8533;BMP280;4304;53.876;10.662;2023-04-22T07:47:17;101324.56;;;17.71
8533;BMP280;4304;53.876;10.662;2023-04-22T07:49:43;101346.84;;;18.34
8533;BMP280;4304;53.876;10.662;2023-04-22T07:52:09;101330.81;;;18.18
8533;BMP280;4304;53.876;10.662;2023-04-22T07:54:35;101345.22;;;18.71
8533;BMP280;4304;53.876;10.662;2023-04-22T07:57:00;101355.69;;;19.27
8533;BMP280;4304;53.876;10.662;2023-04-22T07:59:25;101352.28;;;18.42
8533;BMP280;4304;53.876;10.662;2023-04-22T08:01:51;101323.03;;;18.17
8533;BMP280;4304;53.876;10.662;2023-04-22T08:04:16;101351.53;;;18.96
8533;BMP280;4304;53.876;10.662;2023-04-22T08:06:41;101338.00;;;19.01
8533;BMP280;4304;53.876;10.662;2023-04-22T08:09:07;101345.69;;;19.30
8533;BMP280;4304;53.876;10.662;2023-04-22T08:11:32;101330.13;;;19.37
8533;BMP280;4304;53.876;10.662;2023-04-22T08:13:59;101349.91;;;19.86
8533;BMP280;4304;53.876;10.662;2023-04-22T08:16:24;101313.25;;;19.21
8533;BMP280;4304;53.876;10.662;2023-04-22T08:18:50;101314.66;;;18.96
8533;BMP280;4304;53.876;10.662;2023-04-22T08:21:16;101314.72;;;19.32
8533;BMP280;4304;53.876;10.662;2023-04-22T08:23:42;101330.97;;;19.64
8533;BMP280;4304;53.876;10.662;2023-04-22T08:26:08;101316.34;;;18.97
8533;BMP280;4304;53.876;10.662;2023-04-22T08:28:36;101310.13;;;18.80
8533;BMP280;4304;53.876;10.662;2023-04-22T08:31:01;101300.56;;;18.79
8533;BMP280;4304;53.876;10.662;2023-04-22T08:33:26;101306.94;;;18.76
8533;BMP280;4304;53.876;10.662;2023-04-22T08:35:52;101285.81;;;19.14
8533;BMP280;4304;53.876;10.662;2023-04-22T08:38:17;101298.75;;;18.88
8533;BMP280;4304;53.876;10.662;2023-04-22T08:40:42;101293.19;;;19.10
8533;BMP280;4304;53.876;10.662;2023-04-22T08:43:08;101300.06;;;19.21
8533;BMP280;4304;53.876;10.662;2023-04-22T08:45:33;101307.69;;;19.86
8533;BMP280;4304;53.876;10.662;2023-04-22T08:47:59;101295.03;;;19.00
8533;BMP280;4304;53.876;10.662;2023-04-22T08:50:27;101306.38;;;19.46
8533;BMP280;4304;53.876;10.662;2023-04-22T08:52:54;101261.16;;;19.05
8533;BMP280;4304;53.876;10.662;2023-04-22T08:55:19;101256.78;;;19.76
8533;BMP280;4304;53.876;10.662;2023-04-22T08:57:44;101282.66;;;19.64
8533;BMP280;4304;53.876;10.662;2023-04-22T09:00:11;101288.94;;;19.63
8533;BMP280;4304;53.876;10.662;2023-04-22T09:02:40;101274.19;;;19.43
8533;BMP280;4304;53.876;10.662;2023-04-22T09:05:08;101261.13;;;19.68
8533;BMP280;4304;53.876;10.662;2023-04-22T09:07:34;101260.34;;;19.41
8533;BMP280;4304;53.876;10.662;2023-04-22T09:10:00;101236.50;;;19.33
8533;BMP280;4304;53.876;10.662;2023-04-22T09:12:26;101248.50;;;19.45
8533;BMP280;4304;53.876;10.662;2023-04-22T09:14:52;101221.06;;;19.65
8533;BMP280;4304;53.876;10.662;2023-04-22T09:17:33;101229.25;;;19.62
8533;BMP280;4304;53.876;10.662;2023-04-22T09:20:03;101255.81;;;20.47
8533;BMP280;4304;53.876;10.662;2023-04-22T09:22:37;101270.31;;;19.91
8533;BMP280;4304;53.876;10.662;2023-04-22T09:25:04;101251.84;;;20.25
8533;BMP280;4304;53.876;10.662;2023-04-22T09:27:29;101263.69;;;19.87
8533;BMP280;4304;53.876;10.662;2023-04-22T09:29:54;101251.72;;;19.92
8533;BMP280;4304;53.876;10.662;2023-04-22T09:32:23;101221.13;;;19.72
8533;BMP280;4304;53.876;10.662;2023-04-22T09:34:50;101231.44;;;19.83
8533;BMP280;4304;53.876;10.662;2023-04-22T09:37:22;101226.38;;;20.16
8533;BMP280;4304;53.876;10.662;2023-04-22T09:39:48;101226.59;;;20.23
8533;BMP280;4304;53.876;10.662;2023-04-22T09:42:15;101234.41;;;20.50
8533;BMP280;4304;53.876;10.662;2023-04-22T09:44:40;101237.06;;;19.98
8533;BMP280;4304;53.876;10.662;2023-04-22T09:47:06;101225.75;;;19.70
8533;BMP280;4304;53.876;10.662;2023-04-22T09:49:36;101213.91;;;19.74
8533;BMP280;4304;53.876;10.662;2023-04-22T09:52:03;101214.44;;;20.30
8533;BMP280;4304;53.876;10.662;2023-04-22T09:54:28;101227.34;;;20.15
8533;BMP280;4304;53.876;10.662;2023-04-22T09:56:53;101233.91;;;20.29
8533;BMP280;4304;53.876;10.662;2023-04-22T10:01:46;101237.66;;;20.86
8533;BMP280;4304;53.876;10.662;2023-04-22T10:04:11;101224.63;;;21.26
8533;BMP280;4304;53.876;10.662;2023-04-22T10:06:39;101251.31;;;21.40
8533;BMP280;4304;53.876;10.662;2023-04-22T10:09:04;101213.03;;;21.52
8533;BMP280;4304;53.876;10.662;2023-04-22T10:11:31;101238.75;;;21.75
8533;BMP280;4304;53.876;10.662;2023-04-22T10:13:57;101212.47;;;22.13
8533;BMP280;4304;53.876;10.662;2023-04-22T10:16:26;101237.78;;;22.08
8533;BMP280;4304;53.876;10.662;2023-04-22T10:18:54;101262.94;;;22.12
8533;BMP280;4304;53.876;10.662;2023-04-22T10:21:22;101228.91;;;22.25
8533;BMP280;4304;53.876;10.662;2023-04-22T10:23:48;101242.44;;;22.14
8533;BMP280;4304;53.876;10.662;2023-04-22T10:26:40;101211.53;;;22.38
8533;BMP280;4304;53.876;10.662;2023-04-22T10:29:06;101220.97;;;22.25
8533;BMP280;4304;53.876;10.662;2023-04-22T10:31:33;101229.88;;;22.24
8533;BMP280;4304;53.876;10.662;2023-04-22T10:34:12;101232.38;;;22.25
8533;BMP280;4304;53.876;10.662;2023-04-22T10:36:55;101219.63;;;22.52
8533;BMP280;4304;53.876;10.662;2023-04-22T10:39:21;101202.38;;;22.17
8533;BMP280;4304;53.876;10.662;2023-04-22T10:42:13;101201.31;;;21.54
8533;BMP280;4304;53.876;10.662;2023-04-22T10:44:50;101188.78;;;21.64
8533;BMP280;4304;53.876;10.662;2023-04-22T10:47:33;101205.19;;;21.99
8533;BMP280;4304;53.876;10.662;2023-04-22T10:52:46;101190.81;;;22.49
8533;BMP280;4304;53.876;10.662;2023-04-22T10:55:12;101187.53;;;22.31
8533;BMP280;4304;53.876;10.662;2023-04-22T10:57:47;101168.94;;;22.55
8533;BMP280;4304;53.876;10.662;2023-04-22T11:00:28;101190.81;;;22.57
8533;BMP280;4304;53.876;10.662;2023-04-22T11:05:26;101174.53;;;22.68
8533;BMP280;4304;53.876;10.662;2023-04-22T11:07:53;101176.66;;;22.88
8533;BMP280;4304;53.876;10.662;2023-04-22T11:10:40;101178.00;;;22.76
8533;BMP280;4304;53.876;10.662;2023-04-22T11:13:16;101148.53;;;23.17
8533;BMP280;4304;53.876;10.662;2023-04-22T11:15:45;101137.19;;;23.01
8533;BMP280;4304;53.876;10.662;2023-04-22T11:18:37;101166.72;;;23.28
8533;BMP280;4304;53.876;10.662;2023-04-22T11:21:04;101139.47;;;23.42
8533;BMP280;4304;53.876;10.662;2023-04-22T11:23:31;101150.72;;;23.44
8533;BMP280;4304;53.876;10.662;2023-04-22T11:26:02;101129.31;;;22.70
8533;BMP280;4304;53.876;10.662;2023-04-22T11:28:28;101144.16;;;23.02
8533;BMP280;4304;53.876;10.662;2023-04-22T11:31:01;101117.09;;;23.37
8533;BMP280;4304;53.876;10.662;2023-04-22T11:33:27;101144.38;;;23.23
8533;BMP280;4304;53.876;10.662;2023-04-22T11:35:52;101092.53;;;23.43
8533;BMP280;4304;53.876;10.662;2023-04-22T11:38:17;101122.69;;;23.19
8533;BMP280;4304;53.876;10.662;2023-04-22T11:40:43;101062.00;;;23.47
8533;BMP280;4304;53.876;10.662;2023-04-22T11:43:10;101109.25;;;23.21
8533;BMP280;4304;53.876;10.662;2023-04-22T11:45:36;101101.13;;;22.92
8533;BMP280;4304;53.876;10.662;2023-04-22T11:48:05;101104.50;;;23.09
8533;BMP280;4304;53.876;10.662;2023-04-22T11:50:32;101088.63;;;23.01
8533;BMP280;4304;53.876;10.662;2023-04-22T11:53:00;101088.50;;;23.77
8533;BMP280;4304;53.876;10.662;2023-04-22T11:55:30;101097.44;;;23.76
8533;BMP280;4304;53.876;10.662;2023-04-22T11:57:58;101099.00;;;23.40
8533;BMP280;4304;53.876;10.662;2023-04-22T12:00:31;101054.69;;;23.26
8533;BMP280;4304;53.876;10.662;2023-04-22T12:03:22;101058.56;;;23.83
8533;BMP280;4304;53.876;10.662;2023-04-22T12:05:59;101113.91;;;23.94
8533;BMP280;4304;53.876;10.662;2023-04-22T12:08:35;101096.44;;;24.13
8533;BMP280;4304;53.876;10.662;2023-04-22T12:11:04;101095.09;;;23.81
8533;BMP280;4304;53.876;10.662;2023-04-22T12:13:41;101072.47;;;23.70
8533;BMP280;4304;53.876;10.662;2023-04-22T12:16:11;101061.91;;;23.99
8533;BMP280;4304;53.876;10.662;2023-04-22T12:18:39;101091.91;;;23.85
8533;BMP280;4304;53.876;10.662;2023-04-22T12:21:12;101091.97;;;24.28
8533;BMP280;4304;53.876;10.662;2023-04-22T12:23:48;101085.16;;;23.97
8533;BMP280;4304;53.876;10.662;2023-04-22T12:26:15;101075.84;;;24.15
8533;BMP280;4304;53.876;10.662;2023-04-22T12:28:41;101074.22;;;24.14
8533;BMP280;4304;53.876;10.662;2023-04-22T12:31:07;101087.16;;;24.46
8533;BMP280;4304;53.876;10.662;2023-04-22T12:33:34;101063.22;;;23.81
8533;BMP280;4304;53.876;10.662;2023-04-22T12:36:00;101036.19;;;23.41
8533;BMP280;4304;53.876;10.662;2023-04-22T12:38:25;101038.88;;;23.77
8533;BMP280;4304;53.876;10.662;2023-04-22T12:40:51;101028.72;;;23.81
8533;BMP280;4304;53.876;10.662;2023-04-22T12:43:17;101046.03;;;23.77
8533;BMP280;4304;53.876;10.662;2023-04-22T12:45:42;101035.03;;;23.80
8533;BMP280;4304;53.876;10.662;2023-04-22T12:48:08;101030.81;;;23.71
8533;BMP280;4304;53.876;10.662;2023-04-22T12:50:33;101028.47;;;23.31
8533;BMP280;4304;53.876;10.662;2023-04-22T12:52:59;101027.38;;;23.40
8533;BMP280;4304;53.876;10.662;2023-04-22T12:55:24;101007.53;;;23.36
8533;BMP280;4304;53.876;10.662;2023-04-22T12:57:50;101011.50;;;23.62
8533;BMP280;4304;53.876;10.662;2023-04-22T13:00:16;101033.34;;;23.87
8533;BMP280;4304;53.876;10.662;2023-04-22T13:02:43;101013.72;;;23.73
8533;BMP280;4304;53.876;10.662;2023-04-22T13:05:09;101003.69;;;23.39
8533;BMP280;4304;53.876;10.662;2023-04-22T13:07:35;100988.91;;;23.22
8533;BMP280;4304;53.876;10.662;2023-04-22T13:10:01;100996.59;;;22.87
8533;BMP280;4304;53.876;10.662;2023-04-22T13:12:26;100977.41;;;22.85
8533;BMP280;4304;53.876;10.662;2023-04-22T13:14:52;100998.78;;;22.83
8533;BMP280;4304;53.876;10.662;2023-04-22T13:17:17;100994.28;;;22.84
8533;BMP280;4304;53.876;10.662;2023-04-22T13:19:42;100977.31;;;23.01
8533;BMP280;4304;53.876;10.662;2023-04-22T13:22:08;100995.44;;;22.81
8533;BMP280;4304;53.876;10.662;2023-04-22T13:24:33;100972.16;;;22.99
8533;BMP280;4304;53.876;10.662;2023-04-22T13:26:59;100962.47;;;22.92
8533;BMP280;4304;53.876;10.662;2023-04-22T13:29:25;100965.22;;;22.68
8533;BMP280;4304;53.876;10.662;2023-04-22T13:31:50;100967.22;;;22.66
8533;BMP280;4304;53.876;10.662;2023-04-22T13:34:16;100931.66;;;22.83
8533;BMP280;4304;53.876;10.662;2023-04-22T13:36:41;100927.66;;;22.95
8533;BMP280;4304;53.876;10.662;2023-04-22T13:39:07;100957.81;;;22.86
8533;BMP280;4304;53.876;10.662;2023-04-22T13:41:33;100956.94;;;22.71
8533;BMP280;4304;53.876;10.662;2023-04-22T13:43:59;100923.78;;;22.75
8533;BMP280;4304;53.876;10.662;2023-04-22T13:46:24;100924.44;;;22.77
8533;BMP280;4304;53.876;10.662;2023-04-22T13:48:51;100935.81;;;22.55
8533;BMP280;4304;53.876;10.662;2023-04-22T13:51:17;100906.50;;;22.57
8533;BMP280;4304;53.876;10.662;2023-04-22T13:53:42;100931.53;;;22.54
8533;BMP280;4304;53.876;10.662;2023-04-22T13:56:08;100900.22;;;22.58
8533;BMP280;4304;53.876;10.662;2023-04-22T13:58:33;100915.38;;;22.41
8533;BMP280;4304;53.876;10.662;2023-04-22T14:00:58;100908.03;;;22.51
8533;BMP280;4304;53.876;10.662;2023-04-22T14:03:24;100892.63;;;22.55
8533;BMP280;4304;53.876;10.662;2023-04-22T14:05:49;100893.56;;;22.62
8533;BMP280;4304;53.876;10.662;2023-04-22T14:08:15;100898.56;;;22.57
8533;BMP280;4304;53.876;10.662;2023-04-22T14:10:40;100910.22;;;22.48
8533;BMP280;4304;53.876;10.662;2023-04-22T14:13:05;100912.28;;;22.60
8533;BMP280;4304;53.876;10.662;2023-04-22T14:15:31;100872.78;;;22.73
8533;BMP280;4304;53.876;10.662;2023-04-22T14:17:56;100885.97;;;22.81